createdAt,value
2022-12-01T00:00:00.356Z,6.45
2022-12-01T00:01:00.317Z,6.38
2022-12-01T00:02:00.575Z,6.38
2022-12-01T00:03:00.439Z,6.38
2022-12-01T00:04:00.307Z,6.38
2022-12-01T00:05:00.277Z,6.38
2022-12-01T00:06:01.720Z,6.30
2022-12-01T00:07:00.265Z,6.30
2022-12-01T00:08:00.787Z,6.30
2022-12-01T00:09:00.257Z,6.30
2022-12-01T00:10:00.268Z,6.30
2022-12-01T00:11:04.931Z,6.21
2022-12-01T00:12:00.253Z,6.21
2022-12-01T00:13:02.923Z,6.21
2022-12-01T00:14:00.369Z,6.21
2022-12-01T00:15:00.344Z,6.21
2022-12-01T00:16:10.219Z,6.13
2022-12-01T00:17:00.353Z,6.13
2022-12-01T00:18:01.057Z,6.13
2022-12-01T00:19:00.409Z,6.13
2022-12-01T00:20:00.323Z,6.13
2022-12-01T00:21:04.055Z,6.05
2022-12-01T00:22:00.273Z,6.05
2022-12-01T00:23:00.516Z,6.05
2022-12-01T00:24:00.248Z,6.05
2022-12-01T00:25:00.333Z,6.05
2022-12-01T00:26:02.718Z,5.85
2022-12-01T00:27:00.233Z,5.85
2022-12-01T00:28:00.276Z,5.85
2022-12-01T00:29:00.279Z,5.85
2022-12-01T00:30:00.276Z,5.85
2022-12-01T00:31:00.322Z,5.72
2022-12-01T00:32:00.286Z,5.72
2022-12-01T00:33:00.250Z,5.72
2022-12-01T00:34:00.613Z,5.72
2022-12-01T00:35:00.386Z,5.72
2022-12-01T00:36:00.672Z,5.65
2022-12-01T00:37:00.256Z,5.65
2022-12-01T00:38:00.249Z,5.65
2022-12-01T00:39:00.250Z,5.65
2022-12-01T00:40:00.542Z,5.65
2022-12-01T00:41:08.943Z,5.58
2022-12-01T00:42:00.236Z,5.58
2022-12-01T00:43:00.239Z,5.58
2022-12-01T00:44:00.235Z,5.58
2022-12-01T00:45:00.256Z,5.58
2022-12-01T00:46:00.364Z,5.34
2022-12-01T00:47:00.288Z,5.34
2022-12-01T00:48:00.241Z,5.34
2022-12-01T00:49:00.339Z,5.34
2022-12-01T00:50:00.265Z,5.34
2022-12-01T00:51:00.643Z,5.18
2022-12-01T00:52:00.257Z,5.18
2022-12-01T00:53:04.359Z,5.18
2022-12-01T00:54:00.252Z,5.18
2022-12-01T00:55:00.248Z,5.18
2022-12-01T00:56:00.395Z,5.08
2022-12-01T00:57:00.301Z,5.08
2022-12-01T00:58:00.282Z,5.08
2022-12-01T00:59:00.258Z,5.08
2022-12-01T01:00:00.344Z,5.08
2022-12-01T01:01:01.021Z,4.97
2022-12-01T01:02:00.819Z,4.97
2022-12-01T01:03:00.480Z,4.97
2022-12-01T01:04:00.275Z,4.97
2022-12-01T01:05:00.242Z,4.97
2022-12-01T01:06:04.566Z,4.86
2022-12-01T01:07:00.261Z,4.86
2022-12-01T01:08:00.310Z,4.86
2022-12-01T01:09:00.301Z,4.86
2022-12-01T01:10:00.423Z,4.86
2022-12-01T01:11:00.279Z,4.77
2022-12-01T01:12:00.259Z,4.77
2022-12-01T01:13:00.264Z,4.77
2022-12-01T01:14:00.514Z,4.77
2022-12-01T01:15:00.289Z,4.77
2022-12-01T01:16:01.725Z,4.66
2022-12-01T01:17:00.423Z,4.66
2022-12-01T01:18:00.415Z,4.66
2022-12-01T01:19:00.239Z,4.66
2022-12-01T01:20:00.258Z,4.66
2022-12-01T01:21:01.773Z,4.61
2022-12-01T01:22:00.234Z,4.61
2022-12-01T01:23:00.277Z,4.61
2022-12-01T01:24:00.248Z,4.61
2022-12-01T01:25:00.414Z,4.61
2022-12-01T01:26:02.549Z,4.73
2022-12-01T01:27:00.271Z,4.73
2022-12-01T01:28:00.237Z,4.73
2022-12-01T01:29:00.985Z,4.73
2022-12-01T01:30:00.237Z,4.73
2022-12-01T01:31:03.942Z,4.78
2022-12-01T01:32:00.279Z,4.78
2022-12-01T01:33:00.254Z,4.78
2022-12-01T01:34:00.362Z,4.78
2022-12-01T01:35:00.255Z,4.78
2022-12-01T01:36:00.816Z,4.76
2022-12-01T01:37:00.260Z,4.76
2022-12-01T01:38:00.271Z,4.76
2022-12-01T01:39:00.517Z,4.76
2022-12-01T01:40:00.308Z,4.76
2022-12-01T01:41:02.543Z,4.73
2022-12-01T01:42:00.223Z,4.73
2022-12-01T01:43:00.254Z,4.73
2022-12-01T01:44:01.451Z,4.73
2022-12-01T01:45:00.268Z,4.73
2022-12-01T01:46:00.304Z,4.70
2022-12-01T01:47:00.314Z,4.70
2022-12-01T01:48:00.411Z,4.70
2022-12-01T01:49:01.707Z,4.70
2022-12-01T01:50:01.824Z,4.70
2022-12-01T01:51:00.680Z,4.72
2022-12-01T01:52:01.985Z,4.72
2022-12-01T01:53:01.740Z,4.72
2022-12-01T01:54:03.268Z,4.72
2022-12-01T01:55:00.354Z,4.72
2022-12-01T01:56:01.713Z,4.56
2022-12-01T01:57:01.076Z,4.56
2022-12-01T01:58:01.709Z,4.56
2022-12-01T01:59:00.344Z,4.56
2022-12-01T02:00:02.881Z,4.56
2022-12-01T02:01:00.300Z,4.37
2022-12-01T02:02:02.618Z,4.37
2022-12-01T02:03:01.349Z,4.37
2022-12-01T02:04:00.555Z,4.37
2022-12-01T02:05:01.396Z,4.37
2022-12-01T02:06:04.789Z,4.37
2022-12-01T02:07:00.362Z,4.37
2022-12-01T02:08:01.014Z,4.37
2022-12-01T02:09:00.232Z,4.37
2022-12-01T02:10:00.253Z,4.37
2022-12-01T02:11:07.769Z,4.34
2022-12-01T02:12:01.291Z,4.34
2022-12-01T02:13:07.611Z,4.34
2022-12-01T02:14:08.598Z,4.34
2022-12-01T02:15:01.340Z,4.34
2022-12-01T02:16:00.212Z,4.33
2022-12-01T02:17:00.335Z,4.33
2022-12-01T02:18:10.160Z,4.33
2022-12-01T02:19:10.183Z,4.33
2022-12-01T02:20:07.710Z,4.33
2022-12-01T02:21:10.157Z,4.30
2022-12-01T02:22:10.150Z,4.30
2022-12-01T02:23:10.175Z,4.30
2022-12-01T02:24:03.550Z,4.30
2022-12-01T02:25:10.177Z,4.30
2022-12-01T02:26:07.662Z,4.25
2022-12-01T02:27:04.119Z,4.25
2022-12-01T02:28:10.168Z,4.25
2022-12-01T02:29:10.150Z,4.25
2022-12-01T02:30:04.698Z,4.25
2022-12-01T02:31:03.452Z,4.20
2022-12-01T02:32:01.233Z,4.20
2022-12-01T02:33:10.165Z,4.20
2022-12-01T02:34:08.160Z,4.20
2022-12-01T02:35:10.167Z,4.20
2022-12-01T02:36:03.793Z,4.17
2022-12-01T02:37:09.596Z,4.17
2022-12-01T02:38:07.733Z,4.17
2022-12-01T02:39:03.526Z,4.17
2022-12-01T02:40:04.875Z,4.17
2022-12-01T02:41:01.240Z,4.12
2022-12-01T02:42:03.558Z,4.12
2022-12-01T02:43:02.508Z,4.12
2022-12-01T02:44:05.050Z,4.12
2022-12-01T02:45:03.101Z,4.12
2022-12-01T02:46:10.241Z,4.01
2022-12-01T02:47:07.691Z,4.01
2022-12-01T02:48:01.271Z,4.01
2022-12-01T02:49:03.803Z,4.01
2022-12-01T02:50:01.160Z,4.01
2022-12-01T02:51:05.216Z,4.01
2022-12-01T02:52:01.907Z,4.01
2022-12-01T02:53:02.061Z,4.01
2022-12-01T02:54:01.220Z,4.01
2022-12-01T02:55:00.245Z,4.01
2022-12-01T02:56:00.283Z,4.02
2022-12-01T02:57:00.266Z,4.02
2022-12-01T02:58:00.356Z,4.02
2022-12-01T02:59:00.248Z,4.02
2022-12-01T03:00:01.032Z,4.02
2022-12-01T03:01:06.056Z,3.93
2022-12-01T03:02:01.278Z,3.93
2022-12-01T03:03:10.172Z,3.93
2022-12-01T03:04:10.158Z,3.93
2022-12-01T03:05:04.234Z,3.93
2022-12-01T03:06:10.175Z,3.89
2022-12-01T03:07:07.746Z,3.89
2022-12-01T03:08:00.291Z,3.89
2022-12-01T03:09:03.505Z,3.89
2022-12-01T03:10:07.756Z,3.89
2022-12-01T03:11:00.989Z,3.88
2022-12-01T03:12:01.232Z,3.88
2022-12-01T03:13:01.295Z,3.88
2022-12-01T03:14:01.232Z,3.88
2022-12-01T03:15:03.523Z,3.88
2022-12-01T03:16:10.266Z,3.89
2022-12-01T03:17:03.680Z,3.89
2022-12-01T03:18:05.909Z,3.89
2022-12-01T03:19:10.206Z,3.89
2022-12-01T03:20:05.774Z,3.89
2022-12-01T03:21:05.788Z,3.86
2022-12-01T03:22:05.993Z,3.86
2022-12-01T03:23:05.966Z,3.86
2022-12-01T03:24:02.749Z,3.86
2022-12-01T03:25:01.290Z,3.86
2022-12-01T03:26:02.459Z,3.83
2022-12-01T03:27:01.175Z,3.83
2022-12-01T03:28:20.731Z,3.83
2022-12-01T03:29:04.438Z,3.83
2022-12-01T03:30:01.140Z,3.83
2022-12-01T03:31:03.212Z,3.86
2022-12-01T03:32:03.863Z,3.86
2022-12-01T03:33:02.806Z,3.86
2022-12-01T03:34:06.938Z,3.86
2022-12-01T03:35:03.957Z,3.86
2022-12-01T03:36:10.179Z,3.92
2022-12-01T03:37:03.157Z,3.92
2022-12-01T03:38:04.621Z,3.92
2022-12-01T03:39:03.151Z,3.92
2022-12-01T03:40:02.111Z,3.92
2022-12-01T03:41:05.008Z,3.97
2022-12-01T03:42:06.112Z,3.97
2022-12-01T03:43:03.489Z,3.97
2022-12-01T03:44:06.730Z,3.97
2022-12-01T03:45:03.554Z,3.97
2022-12-01T03:46:00.324Z,4.03
2022-12-01T03:47:03.192Z,4.03
2022-12-01T03:48:00.404Z,4.03
2022-12-01T03:49:00.234Z,4.03
2022-12-01T03:50:01.275Z,4.03
2022-12-01T03:51:10.176Z,4.03
2022-12-01T03:52:01.235Z,4.03
2022-12-01T03:53:10.171Z,4.03
2022-12-01T03:54:01.240Z,4.03
2022-12-01T03:55:07.012Z,4.03
2022-12-01T03:56:01.682Z,4.11
2022-12-01T03:57:03.954Z,4.11
2022-12-01T03:58:03.031Z,4.11
2022-12-01T03:59:02.071Z,4.11
2022-12-01T04:00:00.816Z,4.11
2022-12-01T04:01:02.572Z,4.10
2022-12-01T04:02:00.620Z,4.10
2022-12-01T04:03:01.587Z,4.10
2022-12-01T04:04:04.824Z,4.10
2022-12-01T04:05:00.245Z,4.10
2022-12-01T04:06:00.321Z,4.12
2022-12-01T04:07:00.319Z,4.12
2022-12-01T04:08:00.421Z,4.12
2022-12-01T04:09:00.414Z,4.12
2022-12-01T04:10:00.286Z,4.12
2022-12-01T04:11:00.231Z,4.09
2022-12-01T04:12:00.267Z,4.09
2022-12-01T04:13:04.895Z,4.09
2022-12-01T04:14:03.558Z,4.09
2022-12-01T04:15:09.046Z,4.09
2022-12-01T04:16:01.156Z,4.09
2022-12-01T04:17:00.255Z,4.09
2022-12-01T04:18:00.229Z,4.09
2022-12-01T04:19:00.235Z,4.09
2022-12-01T04:20:00.270Z,4.09
2022-12-01T04:21:00.236Z,4.12
2022-12-01T04:22:00.238Z,4.12
2022-12-01T04:23:00.269Z,4.12
2022-12-01T04:24:00.277Z,4.12
2022-12-01T04:25:00.225Z,4.12
2022-12-01T04:26:01.306Z,4.17
2022-12-01T04:27:00.234Z,4.17
2022-12-01T04:28:00.232Z,4.17
2022-12-01T04:29:03.455Z,4.17
2022-12-01T04:30:00.241Z,4.17
2022-12-01T04:31:00.324Z,4.29
2022-12-01T04:32:00.267Z,4.29
2022-12-01T04:33:00.227Z,4.29
2022-12-01T04:34:00.351Z,4.29
2022-12-01T04:35:00.259Z,4.29
2022-12-01T04:36:00.367Z,4.41
2022-12-01T04:37:00.258Z,4.41
2022-12-01T04:38:00.242Z,4.41
2022-12-01T04:39:01.106Z,4.41
2022-12-01T04:40:00.322Z,4.41
2022-12-01T04:41:00.261Z,4.49
2022-12-01T04:42:00.629Z,4.49
2022-12-01T04:43:00.230Z,4.49
2022-12-01T04:44:00.302Z,4.49
2022-12-01T04:45:00.533Z,4.49
2022-12-01T04:46:00.787Z,4.56
2022-12-01T04:47:00.359Z,4.56
2022-12-01T04:48:00.230Z,4.56
2022-12-01T04:49:00.277Z,4.56
2022-12-01T04:50:00.250Z,4.56
2022-12-01T04:51:00.616Z,4.56
2022-12-01T04:52:00.275Z,4.56
2022-12-01T04:53:00.246Z,4.56
2022-12-01T04:54:00.976Z,4.56
2022-12-01T04:55:00.265Z,4.56
2022-12-01T04:56:00.310Z,4.59
2022-12-01T04:57:00.290Z,4.59
2022-12-01T04:58:00.252Z,4.59
2022-12-01T04:59:00.229Z,4.59
2022-12-01T05:00:00.386Z,4.59
2022-12-01T05:01:01.111Z,4.67
2022-12-01T05:02:00.419Z,4.67
2022-12-01T05:03:00.369Z,4.67
2022-12-01T05:04:00.256Z,4.67
2022-12-01T05:05:00.336Z,4.67
2022-12-01T05:06:02.504Z,4.72
2022-12-01T05:07:00.225Z,4.72
2022-12-01T05:08:00.404Z,4.72
2022-12-01T05:09:00.632Z,4.72
2022-12-01T05:10:00.364Z,4.72
2022-12-01T05:11:00.611Z,4.77
2022-12-01T05:12:00.323Z,4.77
2022-12-01T05:13:00.363Z,4.77
2022-12-01T05:14:00.336Z,4.77
2022-12-01T05:15:00.240Z,4.77
2022-12-01T05:16:10.232Z,4.82
2022-12-01T05:17:00.239Z,4.82
2022-12-01T05:18:00.285Z,4.82
2022-12-01T05:19:01.409Z,4.82
2022-12-01T05:20:00.244Z,4.82
2022-12-01T05:21:00.608Z,4.82
2022-12-01T05:22:00.237Z,4.82
2022-12-01T05:23:06.060Z,4.82
2022-12-01T05:24:00.270Z,4.82
2022-12-01T05:25:00.374Z,4.82
2022-12-01T05:26:00.847Z,4.87
2022-12-01T05:27:00.283Z,4.87
2022-12-01T05:28:00.233Z,4.87
2022-12-01T05:29:00.255Z,4.87
2022-12-01T05:30:00.275Z,4.87
2022-12-01T05:31:00.262Z,4.92
2022-12-01T05:32:00.416Z,4.92
2022-12-01T05:33:00.227Z,4.92
2022-12-01T05:34:00.336Z,4.92
2022-12-01T05:35:00.362Z,4.92
2022-12-01T05:36:00.275Z,4.95
2022-12-01T05:37:00.242Z,4.95
2022-12-01T05:38:04.650Z,4.95
2022-12-01T05:39:00.251Z,4.95
2022-12-01T05:40:02.256Z,4.95
2022-12-01T05:41:00.305Z,5.00
2022-12-01T05:42:00.260Z,5.00
2022-12-01T05:43:00.463Z,5.00
2022-12-01T05:44:00.250Z,5.00
2022-12-01T05:45:00.278Z,5.00
2022-12-01T05:46:00.644Z,5.05
2022-12-01T05:47:00.234Z,5.05
2022-12-01T05:48:00.909Z,5.05
2022-12-01T05:49:00.226Z,5.05
2022-12-01T05:50:05.182Z,5.05
2022-12-01T05:51:06.468Z,5.05
2022-12-01T05:52:00.228Z,5.05
2022-12-01T05:53:00.228Z,5.05
2022-12-01T05:54:00.541Z,5.05
2022-12-01T05:55:00.569Z,5.05
2022-12-01T05:56:00.277Z,5.10
2022-12-01T05:57:00.250Z,5.10
2022-12-01T05:58:00.775Z,5.10
2022-12-01T05:59:00.343Z,5.10
2022-12-01T06:00:00.460Z,5.10
2022-12-01T06:01:00.553Z,5.15
2022-12-01T06:02:00.251Z,5.15
2022-12-01T06:03:00.241Z,5.15
2022-12-01T06:04:00.328Z,5.15
2022-12-01T06:05:00.270Z,5.15
2022-12-01T06:06:00.281Z,5.19
2022-12-01T06:07:00.294Z,5.19
2022-12-01T06:08:00.516Z,5.19
2022-12-01T06:09:00.283Z,5.19
2022-12-01T06:10:00.747Z,5.19
2022-12-01T06:11:00.386Z,5.18
2022-12-01T06:12:00.235Z,5.18
2022-12-01T06:13:00.318Z,5.18
2022-12-01T06:14:00.283Z,5.18
2022-12-01T06:15:00.276Z,5.18
2022-12-01T06:16:01.291Z,5.18
2022-12-01T06:17:00.349Z,5.18
2022-12-01T06:18:00.353Z,5.18
2022-12-01T06:19:00.308Z,5.18
2022-12-01T06:20:00.387Z,5.18
2022-12-01T06:21:00.548Z,5.20
2022-12-01T06:22:00.248Z,5.20
2022-12-01T06:23:00.236Z,5.20
2022-12-01T06:24:00.250Z,5.20
2022-12-01T06:25:00.431Z,5.20
2022-12-01T06:26:00.251Z,5.19
2022-12-01T06:27:00.248Z,5.19
2022-12-01T06:28:00.266Z,5.19
2022-12-01T06:29:00.308Z,5.19
2022-12-01T06:30:00.418Z,5.19
2022-12-01T06:31:03.491Z,5.20
2022-12-01T06:32:00.295Z,5.20
2022-12-01T06:33:00.275Z,5.20
2022-12-01T06:34:00.254Z,5.20
2022-12-01T06:35:00.262Z,5.20
2022-12-01T06:36:01.433Z,5.22
2022-12-01T06:37:00.224Z,5.22
2022-12-01T06:38:00.237Z,5.22
2022-12-01T06:39:00.250Z,5.22
2022-12-01T06:40:00.283Z,5.22
2022-12-01T06:41:00.606Z,5.26
2022-12-01T06:42:00.429Z,5.26
2022-12-01T06:43:00.818Z,5.26
2022-12-01T06:44:00.242Z,5.26
2022-12-01T06:45:00.241Z,5.26
2022-12-01T06:46:02.594Z,5.28
2022-12-01T06:47:00.241Z,5.28
2022-12-01T06:48:00.241Z,5.28
2022-12-01T06:49:00.229Z,5.28
2022-12-01T06:50:00.267Z,5.28
2022-12-01T06:51:00.715Z,5.30
2022-12-01T06:52:01.142Z,5.30
2022-12-01T06:53:00.231Z,5.30
2022-12-01T06:54:05.490Z,5.30
2022-12-01T06:55:00.293Z,5.30
2022-12-01T06:56:00.966Z,5.32
2022-12-01T06:57:00.224Z,5.32
2022-12-01T06:58:00.234Z,5.32
2022-12-01T06:59:00.227Z,5.32
2022-12-01T07:00:00.358Z,5.32
2022-12-01T07:01:06.187Z,5.33
2022-12-01T07:02:00.264Z,5.33
2022-12-01T07:03:00.364Z,5.33
2022-12-01T07:04:00.234Z,5.33
2022-12-01T07:05:00.267Z,5.33
2022-12-01T07:06:00.786Z,5.31
2022-12-01T07:07:00.235Z,5.31
2022-12-01T07:08:00.348Z,5.31
2022-12-01T07:09:00.231Z,5.31
2022-12-01T07:10:00.322Z,5.31
2022-12-01T07:11:01.440Z,5.28
2022-12-01T07:12:00.355Z,5.28
2022-12-01T07:13:00.225Z,5.28
2022-12-01T07:14:00.257Z,5.28
2022-12-01T07:15:00.236Z,5.28
2022-12-01T07:16:01.090Z,5.22
2022-12-01T07:17:00.368Z,5.22
2022-12-01T07:18:00.234Z,5.22
2022-12-01T07:19:00.226Z,5.22
2022-12-01T07:20:00.272Z,5.22
2022-12-01T07:21:00.644Z,5.16
2022-12-01T07:22:00.272Z,5.16
2022-12-01T07:23:00.279Z,5.16
2022-12-01T07:24:00.256Z,5.16
2022-12-01T07:25:00.323Z,5.16
2022-12-01T07:26:01.115Z,5.12
2022-12-01T07:27:00.322Z,5.12
2022-12-01T07:28:00.254Z,5.12
2022-12-01T07:29:00.224Z,5.12
2022-12-01T07:30:00.277Z,5.12
2022-12-01T07:31:02.554Z,5.08
2022-12-01T07:32:00.314Z,5.08
2022-12-01T07:33:00.249Z,5.08
2022-12-01T07:34:00.263Z,5.08
2022-12-01T07:35:00.252Z,5.08
2022-12-01T07:36:00.537Z,5.02
2022-12-01T07:37:00.273Z,5.02
2022-12-01T07:38:00.263Z,5.02
2022-12-01T07:39:03.443Z,5.02
2022-12-01T07:40:00.249Z,5.02
2022-12-01T07:41:00.974Z,4.96
2022-12-01T07:42:00.259Z,4.96
2022-12-01T07:43:00.317Z,4.96
2022-12-01T07:44:00.590Z,4.96
2022-12-01T07:45:00.413Z,4.96
2022-12-01T07:46:04.654Z,4.82
2022-12-01T07:47:00.238Z,4.82
2022-12-01T07:48:02.031Z,4.82
2022-12-01T07:49:00.233Z,4.82
2022-12-01T07:50:00.254Z,4.82
2022-12-01T07:51:00.601Z,4.71
2022-12-01T07:52:00.246Z,4.71
2022-12-01T07:53:00.229Z,4.71
2022-12-01T07:54:01.234Z,4.71
2022-12-01T07:55:00.356Z,4.71
2022-12-01T07:56:05.531Z,4.62
2022-12-01T07:57:00.284Z,4.62
2022-12-01T07:58:00.226Z,4.62
2022-12-01T07:59:00.229Z,4.62
2022-12-01T08:00:00.374Z,4.62
2022-12-01T08:01:04.882Z,4.58
2022-12-01T08:02:00.383Z,4.58
2022-12-01T08:03:00.318Z,4.58
2022-12-01T08:04:00.221Z,4.58
2022-12-01T08:05:00.261Z,4.58
2022-12-01T08:06:00.826Z,4.54
2022-12-01T08:07:00.317Z,4.54
2022-12-01T08:08:00.489Z,4.54
2022-12-01T08:09:00.252Z,4.54
2022-12-01T08:10:00.246Z,4.54
2022-12-01T08:11:01.306Z,4.50
2022-12-01T08:12:00.227Z,4.50
2022-12-01T08:13:00.237Z,4.50
2022-12-01T08:14:00.361Z,4.50
2022-12-01T08:15:00.241Z,4.50
2022-12-01T08:16:04.151Z,4.44
2022-12-01T08:17:00.435Z,4.44
2022-12-01T08:18:00.393Z,4.44
2022-12-01T08:19:00.319Z,4.44
2022-12-01T08:20:00.236Z,4.44
2022-12-01T08:21:00.252Z,4.36
2022-12-01T08:22:00.244Z,4.36
2022-12-01T08:23:00.923Z,4.36
2022-12-01T08:24:00.256Z,4.36
2022-12-01T08:25:00.234Z,4.36
2022-12-01T08:26:01.214Z,4.31
2022-12-01T08:27:00.252Z,4.31
2022-12-01T08:28:00.612Z,4.31
2022-12-01T08:29:00.336Z,4.31
2022-12-01T08:30:00.443Z,4.31
2022-12-01T08:31:06.137Z,4.29
2022-12-01T08:32:00.473Z,4.29
2022-12-01T08:33:00.239Z,4.29
2022-12-01T08:34:03.356Z,4.29
2022-12-01T08:35:00.479Z,4.29
2022-12-01T08:36:00.887Z,4.29
2022-12-01T08:37:00.246Z,4.29
2022-12-01T08:38:00.244Z,4.29
2022-12-01T08:39:00.423Z,4.29
2022-12-01T08:40:00.299Z,4.29
2022-12-01T08:41:00.983Z,4.27
2022-12-01T08:42:00.228Z,4.27
2022-12-01T08:43:00.254Z,4.27
2022-12-01T08:44:01.335Z,4.27
2022-12-01T08:45:00.341Z,4.27
2022-12-01T08:46:00.780Z,4.31
2022-12-01T08:47:00.306Z,4.31
2022-12-01T08:48:00.230Z,4.31
2022-12-01T08:49:00.959Z,4.31
2022-12-01T08:50:00.224Z,4.31
2022-12-01T08:51:04.512Z,4.29
2022-12-01T08:52:00.244Z,4.29
2022-12-01T08:53:00.225Z,4.29
2022-12-01T08:54:00.293Z,4.29
2022-12-01T08:55:00.618Z,4.29
2022-12-01T08:56:01.379Z,4.25
2022-12-01T08:57:00.238Z,4.25
2022-12-01T08:58:00.289Z,4.25
2022-12-01T08:59:00.655Z,4.25
2022-12-01T09:00:00.386Z,4.25
2022-12-01T09:01:01.672Z,4.13
2022-12-01T09:02:05.376Z,4.13
2022-12-01T09:03:00.340Z,4.13
2022-12-01T09:04:01.032Z,4.13
2022-12-01T09:05:00.252Z,4.13
2022-12-01T09:06:01.540Z,4.14
2022-12-01T09:07:01.902Z,4.14
2022-12-01T09:08:00.390Z,4.14
2022-12-01T09:09:00.234Z,4.14
2022-12-01T09:10:00.264Z,4.14
2022-12-01T09:11:02.011Z,4.17
2022-12-01T09:12:00.255Z,4.17
2022-12-01T09:13:00.241Z,4.17
2022-12-01T09:14:00.297Z,4.17
2022-12-01T09:15:00.245Z,4.17
2022-12-01T09:16:03.169Z,4.23
2022-12-01T09:17:00.241Z,4.23
2022-12-01T09:18:00.232Z,4.23
2022-12-01T09:19:00.241Z,4.23
2022-12-01T09:20:00.234Z,4.23
2022-12-01T09:21:08.249Z,4.29
2022-12-01T09:22:00.540Z,4.29
2022-12-01T09:23:00.298Z,4.29
2022-12-01T09:24:00.606Z,4.29
2022-12-01T09:25:00.250Z,4.29
2022-12-01T09:26:00.253Z,4.39
2022-12-01T09:27:00.562Z,4.39
2022-12-01T09:28:00.244Z,4.39
2022-12-01T09:29:02.077Z,4.39
2022-12-01T09:30:00.235Z,4.39
2022-12-01T09:31:04.120Z,4.50
2022-12-01T09:32:00.415Z,4.50
2022-12-01T09:33:00.255Z,4.50
2022-12-01T09:34:02.465Z,4.50
2022-12-01T09:35:00.255Z,4.50
2022-12-01T09:36:01.010Z,4.57
2022-12-01T09:37:00.303Z,4.57
2022-12-01T09:38:00.316Z,4.57
2022-12-01T09:39:00.655Z,4.57
2022-12-01T09:40:00.250Z,4.57
2022-12-01T09:41:03.345Z,4.62
2022-12-01T09:42:10.168Z,4.62
2022-12-01T09:43:01.712Z,4.62
2022-12-01T09:44:04.348Z,4.62
2022-12-01T09:45:01.359Z,4.62
2022-12-01T09:46:03.426Z,4.68
2022-12-01T09:47:03.580Z,4.68
2022-12-01T09:48:01.984Z,4.68
2022-12-01T09:49:01.528Z,4.68
2022-12-01T09:50:00.265Z,4.68
2022-12-01T09:51:00.331Z,4.76
2022-12-01T09:52:00.339Z,4.76
2022-12-01T09:53:02.754Z,4.76
2022-12-01T09:54:00.802Z,4.76
2022-12-01T09:55:00.537Z,4.76
2022-12-01T09:56:07.151Z,4.84
2022-12-01T09:57:00.330Z,4.84
2022-12-01T09:58:01.297Z,4.84
2022-12-01T09:59:01.289Z,4.84
2022-12-01T10:00:01.806Z,4.84
2022-12-01T10:01:00.418Z,4.88
2022-12-01T10:02:01.292Z,4.88
2022-12-01T10:03:00.217Z,4.88
2022-12-01T10:04:07.039Z,4.88
2022-12-01T10:05:03.363Z,4.88
2022-12-01T10:06:27.736Z,4.89
2022-12-01T10:07:03.342Z,4.89
2022-12-01T10:08:04.081Z,4.89
2022-12-01T10:09:10.166Z,4.89
2022-12-01T10:10:03.952Z,4.89
2022-12-01T10:11:05.684Z,4.92
2022-12-01T10:12:09.265Z,4.92
2022-12-01T10:13:00.376Z,4.92
2022-12-01T10:14:00.611Z,4.92
2022-12-01T10:15:10.213Z,4.92
2022-12-01T10:16:06.604Z,5.02
2022-12-01T10:17:10.191Z,5.02
2022-12-01T10:18:10.148Z,5.02
2022-12-01T10:19:06.742Z,5.02
2022-12-01T10:20:04.980Z,5.02
2022-12-01T10:21:10.189Z,5.11
2022-12-01T10:22:01.237Z,5.11
2022-12-01T10:23:08.944Z,5.11
2022-12-01T10:24:01.247Z,5.11
2022-12-01T10:25:06.442Z,5.11
2022-12-01T10:26:06.230Z,5.15
2022-12-01T10:27:10.159Z,5.15
2022-12-01T10:28:10.148Z,5.15
2022-12-01T10:29:03.493Z,5.15
2022-12-01T10:30:07.930Z,5.15
2022-12-01T10:31:03.899Z,5.20
2022-12-01T10:32:04.068Z,5.20
2022-12-01T10:33:05.469Z,5.20
2022-12-01T10:34:05.021Z,5.20
2022-12-01T10:35:00.291Z,5.20
2022-12-01T10:36:00.494Z,5.26
2022-12-01T10:37:00.470Z,5.26
2022-12-01T10:38:01.591Z,5.26
2022-12-01T10:39:01.225Z,5.26
2022-12-01T10:40:01.089Z,5.26
2022-12-01T10:41:01.126Z,5.30
2022-12-01T10:42:04.333Z,5.30
2022-12-01T10:43:00.963Z,5.30
2022-12-01T10:44:02.092Z,5.30
2022-12-01T10:45:01.609Z,5.30
2022-12-01T10:46:04.516Z,5.39
2022-12-01T10:47:01.114Z,5.39
2022-12-01T10:48:10.176Z,5.39
2022-12-01T10:49:06.516Z,5.39
2022-12-01T10:50:01.966Z,5.39
2022-12-01T10:51:10.184Z,5.32
2022-12-01T10:52:00.246Z,5.32
2022-12-01T10:53:00.713Z,5.32
2022-12-01T10:54:06.101Z,5.32
2022-12-01T10:55:00.738Z,5.32
2022-12-01T10:56:03.949Z,5.33
2022-12-01T10:57:00.722Z,5.33
2022-12-01T10:58:09.115Z,5.33
2022-12-01T10:59:10.144Z,5.33
2022-12-01T11:00:00.314Z,5.33
2022-12-01T11:01:02.704Z,5.32
2022-12-01T11:02:01.073Z,5.32
2022-12-01T11:03:00.986Z,5.32
2022-12-01T11:04:07.526Z,5.32
2022-12-01T11:05:01.636Z,5.32
2022-12-01T11:06:01.318Z,5.33
2022-12-01T11:07:00.698Z,5.33
2022-12-01T11:08:00.367Z,5.33
2022-12-01T11:09:02.520Z,5.33
2022-12-01T11:10:00.232Z,5.33
2022-12-01T11:11:00.643Z,5.32
2022-12-01T11:12:01.470Z,5.32
2022-12-01T11:13:10.142Z,5.32
2022-12-01T11:14:01.779Z,5.32
2022-12-01T11:15:00.689Z,5.32
2022-12-01T11:16:01.865Z,5.30
2022-12-01T11:17:10.173Z,5.30
2022-12-01T11:18:02.819Z,5.30
2022-12-01T11:19:10.190Z,5.30
2022-12-01T11:20:10.277Z,5.30
2022-12-01T11:21:10.150Z,5.36
2022-12-01T11:22:01.256Z,5.36
2022-12-01T11:23:10.160Z,5.36
2022-12-01T11:24:00.252Z,5.36
2022-12-01T11:25:02.129Z,5.36
2022-12-01T11:26:02.722Z,5.49
2022-12-01T11:27:00.314Z,5.49
2022-12-01T11:28:02.197Z,5.49
2022-12-01T11:29:02.075Z,5.49
2022-12-01T11:30:01.537Z,5.49
2022-12-01T11:31:08.801Z,5.55
2022-12-01T11:32:01.200Z,5.55
2022-12-01T11:33:02.097Z,5.55
2022-12-01T11:34:00.395Z,5.55
2022-12-01T11:35:03.178Z,5.55
2022-12-01T11:36:00.257Z,5.52
2022-12-01T11:37:01.992Z,5.52
2022-12-01T11:38:29.334Z,5.52
2022-12-01T11:39:00.845Z,5.52
2022-12-01T11:40:10.217Z,5.52
2022-12-01T11:41:00.491Z,5.59
2022-12-01T11:42:01.989Z,5.59
2022-12-01T11:43:01.695Z,5.59
2022-12-01T11:44:02.185Z,5.59
2022-12-01T11:45:10.192Z,5.59
2022-12-01T11:46:03.492Z,5.61
2022-12-01T11:47:22.685Z,5.61
2022-12-01T11:48:04.422Z,5.61
2022-12-01T11:49:00.278Z,5.61
2022-12-01T11:50:01.563Z,5.61
2022-12-01T11:51:03.352Z,5.67
2022-12-01T11:52:10.141Z,5.67
2022-12-01T11:53:00.697Z,5.67
2022-12-01T11:54:05.489Z,5.67
2022-12-01T11:55:06.929Z,5.67
2022-12-01T11:56:10.152Z,5.70
2022-12-01T11:57:31.794Z,5.70
2022-12-01T11:58:02.080Z,5.70
2022-12-01T11:59:03.753Z,5.70
2022-12-01T12:00:00.604Z,5.70
2022-12-01T12:01:00.443Z,5.68
2022-12-01T12:02:10.218Z,5.68
2022-12-01T12:03:10.204Z,5.68
2022-12-01T12:04:10.146Z,5.68
2022-12-01T12:05:03.506Z,5.68
2022-12-01T12:06:39.066Z,5.72
2022-12-01T12:07:07.775Z,5.72
2022-12-01T12:08:10.176Z,5.72
2022-12-01T12:09:10.204Z,5.72
2022-12-01T12:10:06.188Z,5.72
2022-12-01T12:11:10.223Z,5.73
2022-12-01T12:12:06.791Z,5.73
2022-12-01T12:13:10.169Z,5.73
2022-12-01T12:14:10.163Z,5.73
2022-12-01T12:15:10.159Z,5.73
2022-12-01T12:16:13.534Z,5.81
2022-12-01T12:17:10.163Z,5.81
2022-12-01T12:18:10.258Z,5.81
2022-12-01T12:19:05.862Z,5.81
2022-12-01T12:20:10.450Z,5.81
2022-12-01T12:21:01.247Z,5.79
2022-12-01T12:22:00.228Z,5.79
2022-12-01T12:23:01.237Z,5.79
2022-12-01T12:24:03.551Z,5.79
2022-12-01T12:25:10.234Z,5.79
2022-12-01T12:26:10.161Z,5.95
2022-12-01T12:27:10.152Z,5.95
2022-12-01T12:28:10.165Z,5.95
2022-12-01T12:29:13.757Z,5.95
2022-12-01T12:30:06.627Z,5.95
2022-12-01T12:31:10.275Z,6.01
2022-12-01T12:32:01.236Z,6.01
2022-12-01T12:33:10.155Z,6.01
2022-12-01T12:34:10.203Z,6.01
2022-12-01T12:35:10.192Z,6.01
2022-12-01T12:36:10.160Z,6.04
2022-12-01T12:37:10.163Z,6.04
2022-12-01T12:38:10.167Z,6.04
2022-12-01T12:39:03.511Z,6.04
2022-12-01T12:40:07.840Z,6.04
2022-12-01T12:41:10.158Z,5.96
2022-12-01T12:42:04.749Z,5.96
2022-12-01T12:43:07.353Z,5.96
2022-12-01T12:44:03.529Z,5.96
2022-12-01T12:45:00.312Z,5.96
2022-12-01T12:46:03.802Z,6.05
2022-12-01T12:47:01.228Z,6.05
2022-12-01T12:48:00.287Z,6.05
2022-12-01T12:49:20.772Z,6.05
2022-12-01T12:50:00.227Z,6.05
2022-12-01T12:51:07.771Z,5.98
2022-12-01T12:52:08.630Z,5.98
2022-12-01T12:53:03.578Z,5.98
2022-12-01T12:54:10.214Z,5.98
2022-12-01T12:55:10.067Z,5.98
2022-12-01T12:56:02.839Z,6.00
2022-12-01T12:57:03.782Z,6.00
2022-12-01T12:58:11.401Z,6.00
2022-12-01T12:59:02.194Z,6.00
2022-12-01T13:00:03.974Z,6.00
2022-12-01T13:01:02.809Z,5.99
2022-12-01T13:02:05.598Z,5.99
2022-12-01T13:03:04.554Z,5.99
2022-12-01T13:04:05.639Z,5.99
2022-12-01T13:05:10.215Z,5.99
2022-12-01T13:06:00.243Z,6.12
2022-12-01T13:07:04.842Z,6.12
2022-12-01T13:08:05.052Z,6.12
2022-12-01T13:09:04.696Z,6.12
2022-12-01T13:10:05.928Z,6.12
2022-12-01T13:11:10.168Z,6.22
2022-12-01T13:12:01.236Z,6.22
2022-12-01T13:13:10.171Z,6.22
2022-12-01T13:14:06.408Z,6.22
2022-12-01T13:15:05.285Z,6.22
2022-12-01T13:16:02.257Z,6.17
2022-12-01T13:17:10.236Z,6.17
2022-12-01T13:18:07.199Z,6.17